sensor_id;sensor_type;location;lat;lon;timestamp;P1;durP1;ratioP1;P2;durP2;ratioP2
50709;SDS011;37033;49.994;21.992;2023-02-11T00:03:02;47.70;;;19.90;;
50709;SDS011;37033;49.994;21.992;2023-02-11T00:05:59;48.10;;;20.70;;
50709;SDS011;37033;49.994;21.992;2023-02-11T00:08:50;39.10;;;17.70;;
50709;SDS011;37033;49.994;21.992;2023-02-11T00:11:40;44.80;;;20.60;;
50709;SDS011;37033;49.994;21.992;2023-02-11T00:14:29;33.70;;;15.20;;
50709;SDS011;37033;49.994;21.992;2023-02-11T00:17:19;39.30;;;17.90;;
50709;SDS011;37033;49.994;21.992;2023-02-11T00:20:09;40.60;;;17.70;;
50709;SDS011;37033;49.994;21.992;2023-02-11T00:22:58;39.80;;;18.50;;
50709;SDS011;37033;49.994;21.992;2023-02-11T00:25:48;42.50;;;19.00;;
50709;SDS011;37033;49.994;21.992;2023-02-11T00:28:37;38.70;;;18.50;;
50709;SDS011;37033;49.994;21.992;2023-02-11T00:31:27;39.90;;;17.40;;
50709;SDS011;37033;49.994;21.992;2023-02-11T00:34:17;39.10;;;17.80;;
50709;SDS011;37033;49.994;21.992;2023-02-11T00:37:07;39.00;;;17.30;;
50709;SDS011;37033;49.994;21.992;2023-02-11T00:39:57;38.80;;;17.70;;
50709;SDS011;37033;49.994;21.992;2023-02-11T00:42:47;32.70;;;15.50;;
50709;SDS011;37033;49.994;21.992;2023-02-11T00:45:36;40.20;;;17.70;;
50709;SDS011;37033;49.994;21.992;2023-02-11T00:48:26;30.50;;;14.90;;
50709;SDS011;37033;49.994;21.992;2023-02-11T00:51:15;31.80;;;15.70;;
50709;SDS011;37033;49.994;21.992;2023-02-11T00:54:05;29.10;;;14.80;;
50709;SDS011;37033;49.994;21.992;2023-02-11T00:56:55;37.90;;;17.10;;
50709;SDS011;37033;49.994;21.992;2023-02-11T00:59:44;36.60;;;18.00;;
50709;SDS011;37033;49.994;21.992;2023-02-11T01:02:35;38.40;;;17.20;;
50709;SDS011;37033;49.994;21.992;2023-02-11T01:05:24;26.30;;;13.30;;
50709;SDS011;37033;49.994;21.992;2023-02-11T01:08:14;36.50;;;16.50;;
50709;SDS011;37033;49.994;21.992;2023-02-11T01:11:05;34.90;;;16.80;;
50709;SDS011;37033;49.994;21.992;2023-02-11T01:13:59;33.60;;;15.90;;
50709;SDS011;37033;49.994;21.992;2023-02-11T01:16:49;31.80;;;15.50;;
50709;SDS011;37033;49.994;21.992;2023-02-11T01:19:40;36.10;;;15.90;;
50709;SDS011;37033;49.994;21.992;2023-02-11T01:22:30;34.20;;;16.80;;
50709;SDS011;37033;49.994;21.992;2023-02-11T01:25:23;36.80;;;16.30;;
50709;SDS011;37033;49.994;21.992;2023-02-11T01:28:15;31.30;;;15.90;;
50709;SDS011;37033;49.994;21.992;2023-02-11T01:31:05;35.20;;;16.10;;
50709;SDS011;37033;49.994;21.992;2023-02-11T01:33:55;32.10;;;16.00;;
50709;SDS011;37033;49.994;21.992;2023-02-11T01:36:44;36.60;;;14.60;;
50709;SDS011;37033;49.994;21.992;2023-02-11T01:39:34;32.20;;;15.90;;
50709;SDS011;37033;49.994;21.992;2023-02-11T01:42:23;32.00;;;15.70;;
50709;SDS011;37033;49.994;21.992;2023-02-11T01:48:44;35.10;;;17.00;;
50709;SDS011;37033;49.994;21.992;2023-02-11T01:51:38;42.30;;;16.70;;
50709;SDS011;37033;49.994;21.992;2023-02-11T01:54:31;28.20;;;14.30;;
50709;SDS011;37033;49.994;21.992;2023-02-11T01:57:42;32.50;;;14.50;;
50709;SDS011;37033;49.994;21.992;2023-02-11T02:00:36;39.70;;;17.50;;
50709;SDS011;37033;49.994;21.992;2023-02-11T02:03:28;34.70;;;17.20;;
50709;SDS011;37033;49.994;21.992;2023-02-11T02:06:21;37.10;;;17.20;;
50709;SDS011;37033;49.994;21.992;2023-02-11T02:09:18;32.10;;;16.90;;
50709;SDS011;37033;49.994;21.992;2023-02-11T02:12:09;37.30;;;17.10;;
50709;SDS011;37033;49.994;21.992;2023-02-11T02:15:16;34.50;;;17.00;;
50709;SDS011;37033;49.994;21.992;2023-02-11T02:18:16;39.40;;;16.50;;
50709;SDS011;37033;49.994;21.992;2023-02-11T02:21:31;40.20;;;16.90;;
50709;SDS011;37033;49.994;21.992;2023-02-11T02:24:52;45.80;;;18.40;;
50709;SDS011;37033;49.994;21.992;2023-02-11T02:27:49;38.20;;;17.50;;
50709;SDS011;37033;49.994;21.992;2023-02-11T02:30:50;38.10;;;18.40;;
50709;SDS011;37033;49.994;21.992;2023-02-11T02:33:54;35.20;;;17.20;;
50709;SDS011;37033;49.994;21.992;2023-02-11T02:36:48;35.20;;;17.30;;
50709;SDS011;37033;49.994;21.992;2023-02-11T02:39:45;38.80;;;17.80;;
50709;SDS011;37033;49.994;21.992;2023-02-11T02:42:37;36.10;;;16.30;;
50709;SDS011;37033;49.994;21.992;2023-02-11T02:45:30;38.90;;;18.20;;
50709;SDS011;37033;49.994;21.992;2023-02-11T02:48:26;42.10;;;19.30;;
50709;SDS011;37033;49.994;21.992;2023-02-11T02:51:23;41.00;;;17.60;;
50709;SDS011;37033;49.994;21.992;2023-02-11T02:54:32;39.10;;;19.10;;
50709;SDS011;37033;49.994;21.992;2023-02-11T02:57:31;38.90;;;18.90;;
50709;SDS011;37033;49.994;21.992;2023-02-11T03:00:35;39.50;;;19.30;;
50709;SDS011;37033;49.994;21.992;2023-02-11T03:03:37;39.10;;;17.50;;
50709;SDS011;37033;49.994;21.992;2023-02-11T03:06:37;44.80;;;20.30;;
50709;SDS011;37033;49.994;21.992;2023-02-11T03:09:35;41.30;;;18.00;;
50709;SDS011;37033;49.994;21.992;2023-02-11T03:12:29;43.60;;;20.30;;
50709;SDS011;37033;49.994;21.992;2023-02-11T03:15:20;42.20;;;18.40;;
50709;SDS011;37033;49.994;21.992;2023-02-11T03:18:14;41.30;;;19.40;;
50709;SDS011;37033;49.994;21.992;2023-02-11T03:21:07;39.00;;;18.60;;
50709;SDS011;37033;49.994;21.992;2023-02-11T03:24:00;43.20;;;19.70;;
50709;SDS011;37033;49.994;21.992;2023-02-11T03:26:55;42.70;;;19.80;;
50709;SDS011;37033;49.994;21.992;2023-02-11T03:29:50;37.50;;;17.80;;
50709;SDS011;37033;49.994;21.992;2023-02-11T03:32:44;39.40;;;17.20;;
50709;SDS011;37033;49.994;21.992;2023-02-11T03:35:38;41.00;;;18.10;;
50709;SDS011;37033;49.994;21.992;2023-02-11T03:38:34;41.20;;;18.90;;
50709;SDS011;37033;49.994;21.992;2023-02-11T03:41:29;40.50;;;19.30;;
50709;SDS011;37033;49.994;21.992;2023-02-11T03:44:20;44.00;;;20.10;;
50709;SDS011;37033;49.994;21.992;2023-02-11T03:47:13;48.40;;;21.20;;
50709;SDS011;37033;49.994;21.992;2023-02-11T03:50:07;39.00;;;16.50;;
50709;SDS011;37033;49.994;21.992;2023-02-11T03:53:01;39.90;;;17.50;;
50709;SDS011;37033;49.994;21.992;2023-02-11T03:55:53;45.90;;;20.00;;
50709;SDS011;37033;49.994;21.992;2023-02-11T03:58:46;43.10;;;20.10;;
50709;SDS011;37033;49.994;21.992;2023-02-11T04:01:36;39.10;;;17.70;;
50709;SDS011;37033;49.994;21.992;2023-02-11T04:04:25;50.80;;;20.30;;
50709;SDS011;37033;49.994;21.992;2023-02-11T04:07:15;42.10;;;19.10;;
50709;SDS011;37033;49.994;21.992;2023-02-11T04:10:07;46.60;;;20.80;;
50709;SDS011;37033;49.994;21.992;2023-02-11T04:12:58;40.70;;;18.10;;
50709;SDS011;37033;49.994;21.992;2023-02-11T04:15:47;44.60;;;19.80;;
50709;SDS011;37033;49.994;21.992;2023-02-11T04:18:37;43.80;;;18.80;;
50709;SDS011;37033;49.994;21.992;2023-02-11T04:21:27;35.30;;;16.70;;
50709;SDS011;37033;49.994;21.992;2023-02-11T04:24:16;51.80;;;20.60;;
50709;SDS011;37033;49.994;21.992;2023-02-11T04:27:06;43.10;;;18.30;;
50709;SDS011;37033;49.994;21.992;2023-02-11T04:29:55;42.90;;;18.10;;
50709;SDS011;37033;49.994;21.992;2023-02-11T04:32:45;36.80;;;16.60;;
50709;SDS011;37033;49.994;21.992;2023-02-11T04:35:35;35.30;;;16.50;;
50709;SDS011;37033;49.994;21.992;2023-02-11T04:38:24;37.00;;;16.10;;
50709;SDS011;37033;49.994;21.992;2023-02-11T04:41:14;38.80;;;17.90;;
50709;SDS011;37033;49.994;21.992;2023-02-11T04:44:04;35.00;;;16.70;;
50709;SDS011;37033;49.994;21.992;2023-02-11T04:46:53;39.70;;;17.90;;
50709;SDS011;37033;49.994;21.992;2023-02-11T04:49:43;38.90;;;17.40;;
50709;SDS011;37033;49.994;21.992;2023-02-11T04:52:32;43.40;;;19.60;;
50709;SDS011;37033;49.994;21.992;2023-02-11T04:55:22;37.40;;;18.90;;
50709;SDS011;37033;49.994;21.992;2023-02-11T04:58:11;40.60;;;17.10;;
50709;SDS011;37033;49.994;21.992;2023-02-11T05:01:05;38.70;;;18.10;;
50709;SDS011;37033;49.994;21.992;2023-02-11T05:03:55;35.90;;;18.10;;
50709;SDS011;37033;49.994;21.992;2023-02-11T05:06:45;38.50;;;19.10;;
50709;SDS011;37033;49.994;21.992;2023-02-11T05:09:34;40.60;;;18.10;;
50709;SDS011;37033;49.994;21.992;2023-02-11T05:12:24;45.60;;;18.30;;
50709;SDS011;37033;49.994;21.992;2023-02-11T05:15:14;41.30;;;17.20;;
50709;SDS011;37033;49.994;21.992;2023-02-11T05:18:04;45.60;;;18.60;;
50709;SDS011;37033;49.994;21.992;2023-02-11T05:20:54;47.60;;;20.30;;
50709;SDS011;37033;49.994;21.992;2023-02-11T05:23:44;41.10;;;18.00;;
50709;SDS011;37033;49.994;21.992;2023-02-11T05:26:33;40.20;;;18.50;;
50709;SDS011;37033;49.994;21.992;2023-02-11T05:29:23;44.00;;;19.10;;
50709;SDS011;37033;49.994;21.992;2023-02-11T05:32:12;38.00;;;18.20;;
50709;SDS011;37033;49.994;21.992;2023-02-11T05:35:02;35.50;;;15.70;;
50709;SDS011;37033;49.994;21.992;2023-02-11T05:37:52;35.20;;;16.80;;
50709;SDS011;37033;49.994;21.992;2023-02-11T05:40:42;40.20;;;17.90;;
50709;SDS011;37033;49.994;21.992;2023-02-11T05:43:32;37.90;;;17.80;;
50709;SDS011;37033;49.994;21.992;2023-02-11T05:46:21;41.70;;;19.90;;
50709;SDS011;37033;49.994;21.992;2023-02-11T05:49:11;41.50;;;17.90;;
50709;SDS011;37033;49.994;21.992;2023-02-11T05:52:01;45.40;;;19.40;;
50709;SDS011;37033;49.994;21.992;2023-02-11T05:54:51;44.30;;;20.10;;
50709;SDS011;37033;49.994;21.992;2023-02-11T05:57:42;42.60;;;18.60;;
50709;SDS011;37033;49.994;21.992;2023-02-11T06:00:32;44.50;;;20.90;;
50709;SDS011;37033;49.994;21.992;2023-02-11T06:03:21;49.20;;;20.20;;
50709;SDS011;37033;49.994;21.992;2023-02-11T06:06:11;42.60;;;19.80;;
50709;SDS011;37033;49.994;21.992;2023-02-11T06:09:01;40.60;;;16.90;;
50709;SDS011;37033;49.994;21.992;2023-02-11T06:11:50;43.20;;;19.70;;
50709;SDS011;37033;49.994;21.992;2023-02-11T06:14:40;48.30;;;20.30;;
50709;SDS011;37033;49.994;21.992;2023-02-11T06:17:29;41.10;;;17.70;;
50709;SDS011;37033;49.994;21.992;2023-02-11T06:20:19;41.30;;;18.50;;
50709;SDS011;37033;49.994;21.992;2023-02-11T06:23:09;43.50;;;17.80;;
50709;SDS011;37033;49.994;21.992;2023-02-11T06:26:01;35.00;;;16.20;;
50709;SDS011;37033;49.994;21.992;2023-02-11T06:28:51;38.40;;;18.20;;
50709;SDS011;37033;49.994;21.992;2023-02-11T06:31:41;41.00;;;17.10;;
50709;SDS011;37033;49.994;21.992;2023-02-11T06:34:30;46.40;;;19.50;;
50709;SDS011;37033;49.994;21.992;2023-02-11T06:37:20;44.80;;;19.00;;
50709;SDS011;37033;49.994;21.992;2023-02-11T06:40:10;41.40;;;17.90;;
50709;SDS011;37033;49.994;21.992;2023-02-11T06:43:00;35.60;;;17.40;;
50709;SDS011;37033;49.994;21.992;2023-02-11T06:45:52;41.80;;;17.00;;
50709;SDS011;37033;49.994;21.992;2023-02-11T06:48:42;36.80;;;18.20;;
50709;SDS011;37033;49.994;21.992;2023-02-11T06:51:32;42.30;;;19.20;;
50709;SDS011;37033;49.994;21.992;2023-02-11T06:54:21;41.40;;;18.00;;
50709;SDS011;37033;49.994;21.992;2023-02-11T06:57:10;49.00;;;19.90;;
50709;SDS011;37033;49.994;21.992;2023-02-11T07:00:00;42.40;;;18.80;;
50709;SDS011;37033;49.994;21.992;2023-02-11T07:02:49;40.10;;;18.20;;
50709;SDS011;37033;49.994;21.992;2023-02-11T07:05:42;44.10;;;19.30;;
50709;SDS011;37033;49.994;21.992;2023-02-11T07:08:31;57.10;;;21.90;;
50709;SDS011;37033;49.994;21.992;2023-02-11T07:11:23;64.30;;;25.00;;
50709;SDS011;37033;49.994;21.992;2023-02-11T07:14:14;54.60;;;22.40;;
50709;SDS011;37033;49.994;21.992;2023-02-11T07:17:04;41.30;;;17.50;;
50709;SDS011;37033;49.994;21.992;2023-02-11T07:19:53;38.90;;;17.30;;
50709;SDS011;37033;49.994;21.992;2023-02-11T07:22:42;41.30;;;18.80;;
50709;SDS011;37033;49.994;21.992;2023-02-11T07:25:32;46.90;;;20.10;;
50709;SDS011;37033;49.994;21.992;2023-02-11T07:28:22;42.10;;;19.20;;
50709;SDS011;37033;49.994;21.992;2023-02-11T07:31:13;39.70;;;18.20;;
50709;SDS011;37033;49.994;21.992;2023-02-11T07:34:04;47.50;;;20.20;;
50709;SDS011;37033;49.994;21.992;2023-02-11T07:36:54;48.60;;;20.20;;
50709;SDS011;37033;49.994;21.992;2023-02-11T07:39:44;41.60;;;18.00;;
50709;SDS011;37033;49.994;21.992;2023-02-11T07:42:34;40.00;;;17.20;;
50709;SDS011;37033;49.994;21.992;2023-02-11T07:45:24;41.50;;;18.60;;
50709;SDS011;37033;49.994;21.992;2023-02-11T07:48:14;38.50;;;16.80;;
50709;SDS011;37033;49.994;21.992;2023-02-11T07:51:08;43.00;;;18.60;;
50709;SDS011;37033;49.994;21.992;2023-02-11T07:54:00;48.60;;;19.00;;
50709;SDS011;37033;49.994;21.992;2023-02-11T07:56:49;41.80;;;19.20;;
50709;SDS011;37033;49.994;21.992;2023-02-11T07:59:39;42.60;;;19.00;;
50709;SDS011;37033;49.994;21.992;2023-02-11T08:02:28;44.80;;;19.60;;
50709;SDS011;37033;49.994;21.992;2023-02-11T08:05:18;47.10;;;20.60;;
50709;SDS011;37033;49.994;21.992;2023-02-11T08:08:08;46.20;;;18.70;;
50709;SDS011;37033;49.994;21.992;2023-02-11T08:10:57;46.70;;;19.80;;
50709;SDS011;37033;49.994;21.992;2023-02-11T08:13:51;37.70;;;17.00;;
50709;SDS011;37033;49.994;21.992;2023-02-11T08:16:42;43.80;;;18.40;;
50709;SDS011;37033;49.994;21.992;2023-02-11T08:19:32;50.30;;;19.40;;
50709;SDS011;37033;49.994;21.992;2023-02-11T08:22:21;42.90;;;18.10;;
50709;SDS011;37033;49.994;21.992;2023-02-11T08:25:11;42.20;;;19.40;;
50709;SDS011;37033;49.994;21.992;2023-02-11T08:28:02;47.40;;;18.60;;
50709;SDS011;37033;49.994;21.992;2023-02-11T08:30:52;40.70;;;17.50;;
50709;SDS011;37033;49.994;21.992;2023-02-11T08:33:42;41.80;;;18.70;;
50709;SDS011;37033;49.994;21.992;2023-02-11T08:36:32;43.50;;;19.00;;
50709;SDS011;37033;49.994;21.992;2023-02-11T08:39:23;51.00;;;19.90;;
50709;SDS011;37033;49.994;21.992;2023-02-11T08:42:13;44.80;;;19.90;;
50709;SDS011;37033;49.994;21.992;2023-02-11T08:45:02;43.80;;;17.80;;
50709;SDS011;37033;49.994;21.992;2023-02-11T08:47:52;50.10;;;20.60;;
50709;SDS011;37033;49.994;21.992;2023-02-11T08:50:42;38.00;;;17.10;;
50709;SDS011;37033;49.994;21.992;2023-02-11T08:53:31;50.70;;;21.90;;
50709;SDS011;37033;49.994;21.992;2023-02-11T08:56:21;42.70;;;19.50;;
50709;SDS011;37033;49.994;21.992;2023-02-11T08:59:12;42.10;;;19.20;;
50709;SDS011;37033;49.994;21.992;2023-02-11T09:02:03;40.00;;;19.30;;
50709;SDS011;37033;49.994;21.992;2023-02-11T09:04:54;44.90;;;19.50;;
50709;SDS011;37033;49.994;21.992;2023-02-11T09:07:43;43.20;;;19.10;;
50709;SDS011;37033;49.994;21.992;2023-02-11T09:10:33;43.50;;;19.10;;
50709;SDS011;37033;49.994;21.992;2023-02-11T09:13:23;49.60;;;22.20;;
50709;SDS011;37033;49.994;21.992;2023-02-11T09:16:16;43.60;;;18.30;;
50709;SDS011;37033;49.994;21.992;2023-02-11T09:19:08;38.60;;;18.40;;
50709;SDS011;37033;49.994;21.992;2023-02-11T09:21:57;46.90;;;20.40;;
50709;SDS011;37033;49.994;21.992;2023-02-11T09:24:48;43.10;;;19.10;;
50709;SDS011;37033;49.994;21.992;2023-02-11T09:27:38;45.20;;;18.70;;
50709;SDS011;37033;49.994;21.992;2023-02-11T09:30:27;39.70;;;18.10;;
50709;SDS011;37033;49.994;21.992;2023-02-11T09:33:17;36.60;;;16.90;;
50709;SDS011;37033;49.994;21.992;2023-02-11T09:36:08;40.90;;;19.50;;
50709;SDS011;37033;49.994;21.992;2023-02-11T09:38:58;37.10;;;17.60;;
50709;SDS011;37033;49.994;21.992;2023-02-11T09:41:53;45.60;;;20.60;;
50709;SDS011;37033;49.994;21.992;2023-02-11T09:45:11;43.80;;;21.90;;
50709;SDS011;37033;49.994;21.992;2023-02-11T09:48:09;36.20;;;18.00;;
50709;SDS011;37033;49.994;21.992;2023-02-11T09:51:03;43.80;;;19.80;;
50709;SDS011;37033;49.994;21.992;2023-02-11T09:53:55;48.40;;;20.90;;
50709;SDS011;37033;49.994;21.992;2023-02-11T09:56:50;36.10;;;18.10;;
50709;SDS011;37033;49.994;21.992;2023-02-11T09:59:40;36.50;;;16.10;;
50709;SDS011;37033;49.994;21.992;2023-02-11T10:02:32;44.40;;;20.00;;
50709;SDS011;37033;49.994;21.992;2023-02-11T10:05:34;43.60;;;20.40;;
50709;SDS011;37033;49.994;21.992;2023-02-11T10:08:39;36.10;;;17.70;;
50709;SDS011;37033;49.994;21.992;2023-02-11T10:11:38;39.30;;;19.90;;
50709;SDS011;37033;49.994;21.992;2023-02-11T10:14:44;40.60;;;20.70;;
50709;SDS011;37033;49.994;21.992;2023-02-11T10:17:46;36.50;;;17.30;;
50709;SDS011;37033;49.994;21.992;2023-02-11T10:20:53;44.20;;;21.40;;
50709;SDS011;37033;49.994;21.992;2023-02-11T10:23:54;41.20;;;18.90;;
50709;SDS011;37033;49.994;21.992;2023-02-11T10:26:51;45.30;;;20.00;;
50709;SDS011;37033;49.994;21.992;2023-02-11T10:29:42;40.20;;;19.10;;
50709;SDS011;37033;49.994;21.992;2023-02-11T10:32:38;37.90;;;17.70;;
50709;SDS011;37033;49.994;21.992;2023-02-11T10:35:33;40.60;;;19.20;;
50709;SDS011;37033;49.994;21.992;2023-02-11T10:38:24;42.70;;;19.50;;
50709;SDS011;37033;49.994;21.992;2023-02-11T10:41:16;42.60;;;18.30;;
50709;SDS011;37033;49.994;21.992;2023-02-11T10:47:19;40.50;;;19.80;;
50709;SDS011;37033;49.994;21.992;2023-02-11T10:50:20;40.30;;;18.90;;
50709;SDS011;37033;49.994;21.992;2023-02-11T10:53:16;43.50;;;19.30;;
50709;SDS011;37033;49.994;21.992;2023-02-11T10:56:11;39.40;;;19.70;;
50709;SDS011;37033;49.994;21.992;2023-02-11T10:59:14;48.70;;;21.10;;
50709;SDS011;37033;49.994;21.992;2023-02-11T11:02:20;38.90;;;18.20;;
50709;SDS011;37033;49.994;21.992;2023-02-11T11:05:16;37.10;;;17.50;;
50709;SDS011;37033;49.994;21.992;2023-02-11T11:08:15;44.40;;;21.90;;
50709;SDS011;37033;49.994;21.992;2023-02-11T11:11:09;38.40;;;18.20;;
50709;SDS011;37033;49.994;21.992;2023-02-11T11:14:03;47.90;;;21.60;;
50709;SDS011;37033;49.994;21.992;2023-02-11T11:17:11;40.30;;;18.50;;
50709;SDS011;37033;49.994;21.992;2023-02-11T11:20:15;46.50;;;20.80;;
50709;SDS011;37033;49.994;21.992;2023-02-11T11:23:16;46.80;;;20.90;;
50709;SDS011;37033;49.994;21.992;2023-02-11T11:26:10;45.30;;;19.30;;
50709;SDS011;37033;49.994;21.992;2023-02-11T11:29:06;39.40;;;18.90;;
50709;SDS011;37033;49.994;21.992;2023-02-11T11:32:02;38.70;;;17.70;;
50709;SDS011;37033;49.994;21.992;2023-02-11T11:35:02;44.80;;;19.70;;
50709;SDS011;37033;49.994;21.992;2023-02-11T11:38:03;40.60;;;19.20;;
50709;SDS011;37033;49.994;21.992;2023-02-11T11:44:18;62.00;;;24.90;;
50709;SDS011;37033;49.994;21.992;2023-02-11T11:47:16;45.60;;;19.80;;
50709;SDS011;37033;49.994;21.992;2023-02-11T11:50:18;46.30;;;20.40;;
50709;SDS011;37033;49.994;21.992;2023-02-11T11:53:14;57.10;;;23.80;;
50709;SDS011;37033;49.994;21.992;2023-02-11T11:56:10;49.80;;;21.20;;
50709;SDS011;37033;49.994;21.992;2023-02-11T11:59:02;104.20;;;44.70;;
50709;SDS011;37033;49.994;21.992;2023-02-11T12:02:06;45.70;;;21.70;;
50709;SDS011;37033;49.994;21.992;2023-02-11T12:05:09;48.90;;;22.90;;
50709;SDS011;37033;49.994;21.992;2023-02-11T12:08:06;48.60;;;23.00;;
50709;SDS011;37033;49.994;21.992;2023-02-11T12:11:06;54.80;;;24.70;;
50709;SDS011;37033;49.994;21.992;2023-02-11T12:14:07;53.40;;;22.70;;
50709;SDS011;37033;49.994;21.992;2023-02-11T12:17:10;49.20;;;23.30;;
50709;SDS011;37033;49.994;21.992;2023-02-11T12:20:20;47.50;;;21.20;;
50709;SDS011;37033;49.994;21.992;2023-02-11T12:23:26;39.80;;;18.90;;
50709;SDS011;37033;49.994;21.992;2023-02-11T12:26:25;51.80;;;22.90;;
50709;SDS011;37033;49.994;21.992;2023-02-11T12:29:26;50.50;;;22.00;;
50709;SDS011;37033;49.994;21.992;2023-02-11T12:32:28;39.70;;;19.00;;
50709;SDS011;37033;49.994;21.992;2023-02-11T12:35:29;45.30;;;21.70;;
50709;SDS011;37033;49.994;21.992;2023-02-11T12:41:47;46.40;;;21.50;;
50709;SDS011;37033;49.994;21.992;2023-02-11T12:45:15;46.20;;;21.40;;
50709;SDS011;37033;49.994;21.992;2023-02-11T12:48:13;44.90;;;20.10;;
50709;SDS011;37033;49.994;21.992;2023-02-11T12:51:14;37.00;;;19.50;;
50709;SDS011;37033;49.994;21.992;2023-02-11T12:54:19;43.20;;;21.40;;
50709;SDS011;37033;49.994;21.992;2023-02-11T12:57:16;39.40;;;20.50;;
50709;SDS011;37033;49.994;21.992;2023-02-11T13:00:13;42.50;;;19.80;;
50709;SDS011;37033;49.994;21.992;2023-02-11T13:03:12;46.50;;;19.90;;
50709;SDS011;37033;49.994;21.992;2023-02-11T13:06:08;43.20;;;19.80;;
50709;SDS011;37033;49.994;21.992;2023-02-11T13:09:08;35.40;;;17.40;;
50709;SDS011;37033;49.994;21.992;2023-02-11T13:12:05;38.80;;;20.60;;
50709;SDS011;37033;49.994;21.992;2023-02-11T13:15:14;37.80;;;18.60;;
50709;SDS011;37033;49.994;21.992;2023-02-11T13:18:12;41.80;;;18.80;;
50709;SDS011;37033;49.994;21.992;2023-02-11T13:24:52;38.30;;;20.50;;
50709;SDS011;37033;49.994;21.992;2023-02-11T13:27:53;42.60;;;20.60;;
50709;SDS011;37033;49.994;21.992;2023-02-11T13:30:58;41.10;;;19.30;;
50709;SDS011;37033;49.994;21.992;2023-02-11T13:33:53;37.90;;;19.60;;
50709;SDS011;37033;49.994;21.992;2023-02-11T13:36:42;43.30;;;18.70;;
50709;SDS011;37033;49.994;21.992;2023-02-11T13:39:45;42.80;;;20.50;;
50709;SDS011;37033;49.994;21.992;2023-02-11T13:42:54;41.50;;;20.60;;
50709;SDS011;37033;49.994;21.992;2023-02-11T13:45:56;41.70;;;22.00;;
50709;SDS011;37033;49.994;21.992;2023-02-11T13:48:52;40.90;;;20.00;;
50709;SDS011;37033;49.994;21.992;2023-02-11T13:51:49;40.20;;;19.30;;
50709;SDS011;37033;49.994;21.992;2023-02-11T13:54:45;42.30;;;19.50;;
50709;SDS011;37033;49.994;21.992;2023-02-11T13:57:38;41.60;;;19.60;;
50709;SDS011;37033;49.994;21.992;2023-02-11T14:03:37;42.50;;;20.00;;
50709;SDS011;37033;49.994;21.992;2023-02-11T14:20:41;32.20;;;16.70;;
50709;SDS011;37033;49.994;21.992;2023-02-11T14:23:32;44.20;;;19.90;;
50709;SDS011;37033;49.994;21.992;2023-02-11T14:26:26;52.40;;;23.70;;
50709;SDS011;37033;49.994;21.992;2023-02-11T14:29:23;52.50;;;22.60;;
50709;SDS011;37033;49.994;21.992;2023-02-11T14:32:25;49.50;;;23.20;;
50709;SDS011;37033;49.994;21.992;2023-02-11T14:35:27;47.70;;;20.80;;
50709;SDS011;37033;49.994;21.992;2023-02-11T14:38:25;52.00;;;22.40;;
50709;SDS011;37033;49.994;21.992;2023-02-11T14:41:25;45.90;;;20.50;;
50709;SDS011;37033;49.994;21.992;2023-02-11T14:44:17;51.10;;;22.80;;
50709;SDS011;37033;49.994;21.992;2023-02-11T14:47:11;50.40;;;23.60;;
50709;SDS011;37033;49.994;21.992;2023-02-11T14:50:10;49.50;;;19.90;;
50709;SDS011;37033;49.994;21.992;2023-02-11T14:53:05;49.80;;;23.70;;
50709;SDS011;37033;49.994;21.992;2023-02-11T14:56:01;55.40;;;25.40;;
50709;SDS011;37033;49.994;21.992;2023-02-11T14:59:02;52.60;;;25.00;;
50709;SDS011;37033;49.994;21.992;2023-02-11T15:02:02;52.70;;;25.00;;
50709;SDS011;37033;49.994;21.992;2023-02-11T15:08:11;56.20;;;24.80;;
50709;SDS011;37033;49.994;21.992;2023-02-11T15:11:06;54.80;;;26.40;;
50709;SDS011;37033;49.994;21.992;2023-02-11T15:14:00;63.30;;;26.70;;
50709;SDS011;37033;49.994;21.992;2023-02-11T15:16:57;62.00;;;28.10;;
50709;SDS011;37033;49.994;21.992;2023-02-11T15:19:48;56.90;;;25.00;;
50709;SDS011;37033;49.994;21.992;2023-02-11T15:22:41;69.60;;;28.50;;
50709;SDS011;37033;49.994;21.992;2023-02-11T15:25:33;49.60;;;22.60;;
50709;SDS011;37033;49.994;21.992;2023-02-11T15:28:32;62.30;;;24.50;;
50709;SDS011;37033;49.994;21.992;2023-02-11T15:31:23;59.60;;;26.40;;
50709;SDS011;37033;49.994;21.992;2023-02-11T15:34:14;55.60;;;24.50;;
50709;SDS011;37033;49.994;21.992;2023-02-11T15:37:04;50.10;;;24.10;;
50709;SDS011;37033;49.994;21.992;2023-02-11T15:39:54;60.00;;;27.20;;
50709;SDS011;37033;49.994;21.992;2023-02-11T15:42:56;66.00;;;27.30;;
50709;SDS011;37033;49.994;21.992;2023-02-11T15:45:57;69.70;;;27.50;;
50709;SDS011;37033;49.994;21.992;2023-02-11T15:48:48;64.10;;;27.00;;
50709;SDS011;37033;49.994;21.992;2023-02-11T15:51:39;66.40;;;28.10;;
50709;SDS011;37033;49.994;21.992;2023-02-11T15:54:33;52.00;;;24.20;;
50709;SDS011;37033;49.994;21.992;2023-02-11T15:57:24;64.00;;;26.90;;
50709;SDS011;37033;49.994;21.992;2023-02-11T16:00:16;58.70;;;26.70;;
50709;SDS011;37033;49.994;21.992;2023-02-11T16:03:16;61.80;;;26.90;;
50709;SDS011;37033;49.994;21.992;2023-02-11T16:06:15;65.90;;;27.30;;
50709;SDS011;37033;49.994;21.992;2023-02-11T16:09:22;66.50;;;26.30;;
50709;SDS011;37033;49.994;21.992;2023-02-11T16:12:22;70.50;;;30.10;;
50709;SDS011;37033;49.994;21.992;2023-02-11T16:15:36;62.40;;;28.60;;
50709;SDS011;37033;49.994;21.992;2023-02-11T16:18:35;70.70;;;29.70;;
50709;SDS011;37033;49.994;21.992;2023-02-11T16:21:28;72.50;;;31.00;;
50709;SDS011;37033;49.994;21.992;2023-02-11T16:24:25;71.30;;;27.40;;
50709;SDS011;37033;49.994;21.992;2023-02-11T16:27:19;63.90;;;25.90;;
50709;SDS011;37033;49.994;21.992;2023-02-11T16:30:20;63.50;;;27.70;;
50709;SDS011;37033;49.994;21.992;2023-02-11T16:33:14;69.80;;;30.30;;
50709;SDS011;37033;49.994;21.992;2023-02-11T16:36:07;60.20;;;26.10;;
50709;SDS011;37033;49.994;21.992;2023-02-11T16:39:02;62.50;;;27.20;;
50709;SDS011;37033;49.994;21.992;2023-02-11T16:41:52;65.70;;;29.70;;
50709;SDS011;37033;49.994;21.992;2023-02-11T16:44:41;60.50;;;26.60;;
50709;SDS011;37033;49.994;21.992;2023-02-11T16:47:31;73.50;;;31.30;;
50709;SDS011;37033;49.994;21.992;2023-02-11T16:50:24;76.60;;;32.40;;
50709;SDS011;37033;49.994;21.992;2023-02-11T16:53:15;66.50;;;28.50;;
50709;SDS011;37033;49.994;21.992;2023-02-11T16:56:11;76.30;;;32.90;;
50709;SDS011;37033;49.994;21.992;2023-02-11T16:59:03;65.60;;;30.90;;
50709;SDS011;37033;49.994;21.992;2023-02-11T17:01:52;71.50;;;31.90;;
50709;SDS011;37033;49.994;21.992;2023-02-11T17:04:44;64.90;;;28.80;;
50709;SDS011;37033;49.994;21.992;2023-02-11T17:07:33;67.10;;;29.20;;
50709;SDS011;37033;49.994;21.992;2023-02-11T17:10:23;68.90;;;29.90;;
50709;SDS011;37033;49.994;21.992;2023-02-11T17:13:14;71.50;;;32.10;;
50709;SDS011;37033;49.994;21.992;2023-02-11T17:16:04;66.80;;;30.80;;
50709;SDS011;37033;49.994;21.992;2023-02-11T17:18:57;74.90;;;32.90;;
50709;SDS011;37033;49.994;21.992;2023-02-11T17:21:48;77.70;;;31.10;;